createdAt,value
2022-09-02T00:01:28.192Z,2.87
2022-09-02T00:04:01.462Z,2.90
2022-09-02T00:06:32.783Z,2.80
2022-09-02T00:09:01.623Z,2.33
2022-09-02T00:11:34.037Z,3.13
2022-09-02T00:14:05.604Z,2.73
2022-09-02T00:16:34.632Z,3.07
2022-09-02T00:19:06.218Z,3.27
2022-09-02T00:21:36.831Z,3.47
2022-09-02T00:24:07.995Z,3.83
2022-09-02T00:26:37.003Z,3.43
2022-09-02T00:29:07.298Z,2.70
2022-09-02T00:31:36.712Z,2.77
2022-09-02T00:34:06.960Z,2.90
2022-09-02T00:36:36.454Z,2.60
2022-09-02T00:39:07.690Z,2.70
2022-09-02T00:41:40.334Z,2.93
2022-09-02T00:44:13.012Z,2.50
2022-09-02T00:46:41.718Z,2.80
2022-09-02T00:49:18.263Z,2.40
2022-09-02T00:51:52.871Z,2.77
2022-09-02T00:54:25.777Z,2.33
2022-09-02T00:56:56.219Z,3.27
2022-09-02T00:59:37.427Z,2.90
2022-09-02T01:02:09.671Z,2.97
2022-09-02T01:04:40.329Z,2.70
2022-09-02T01:07:09.923Z,2.70
2022-09-02T01:09:38.706Z,2.67
2022-09-02T01:12:07.982Z,2.57
2022-09-02T01:14:37.176Z,2.40
2022-09-02T01:17:08.283Z,2.20
2022-09-02T01:19:45.147Z,2.70
2022-09-02T01:22:20.287Z,2.40
2022-09-02T01:24:49.263Z,2.27
2022-09-02T01:27:22.846Z,2.60
2022-09-02T01:29:56.029Z,2.70
2022-09-02T01:32:25.128Z,2.80
2022-09-02T01:34:54.229Z,2.50
2022-09-02T01:37:24.658Z,2.50
2022-09-02T01:39:54.107Z,2.63
2022-09-02T01:42:23.835Z,2.77
2022-09-02T01:44:52.433Z,2.80
2022-09-02T01:47:26.639Z,2.17
2022-09-02T01:49:55.789Z,2.20
2022-09-02T01:52:29.904Z,2.10
2022-09-02T01:54:59.719Z,2.13
2022-09-02T01:57:28.383Z,2.17
2022-09-02T01:59:56.851Z,2.40
2022-09-02T02:02:26.099Z,2.40
2022-09-02T02:04:54.785Z,2.20
2022-09-02T02:07:26.205Z,2.40
2022-09-02T02:09:54.251Z,2.17
2022-09-02T02:12:23.379Z,2.30
2022-09-02T02:14:52.234Z,2.20
2022-09-02T02:17:23.208Z,2.43
2022-09-02T02:19:51.886Z,2.10
2022-09-02T02:22:20.976Z,2.63
2022-09-02T02:24:51.090Z,1.87
2022-09-02T02:27:19.358Z,2.10
2022-09-02T02:29:48.826Z,2.40
2022-09-02T02:32:19.724Z,2.33
2022-09-02T02:34:49.652Z,2.17
2022-09-02T02:37:21.147Z,2.20
2022-09-02T02:39:56.090Z,2.30
2022-09-02T02:42:26.586Z,2.23
2022-09-02T02:44:55.389Z,2.33
2022-09-02T02:47:24.023Z,2.60
2022-09-02T02:49:52.827Z,2.23
2022-09-02T02:52:21.380Z,2.70
2022-09-02T02:54:49.661Z,2.27
2022-09-02T02:57:19.963Z,2.40
2022-09-02T02:59:48.708Z,2.50
2022-09-02T03:02:17.446Z,2.33
2022-09-02T03:04:46.317Z,2.30
2022-09-02T03:07:14.556Z,2.13
2022-09-02T03:09:43.817Z,2.40
2022-09-02T03:12:12.079Z,2.40
2022-09-02T03:14:42.210Z,2.47
2022-09-02T03:17:11.413Z,2.30
2022-09-02T03:19:39.554Z,2.70
2022-09-02T03:22:08.384Z,2.30
2022-09-02T03:24:36.649Z,2.43
2022-09-02T03:27:05.972Z,2.40
2022-09-02T03:29:35.692Z,2.43
2022-09-02T03:32:05.768Z,2.47
2022-09-02T03:34:36.667Z,2.53
2022-09-02T03:37:05.883Z,2.40
2022-09-02T03:39:34.289Z,2.10
2022-09-02T03:42:03.389Z,2.33
2022-09-02T03:44:34.579Z,2.33
2022-09-02T03:47:04.977Z,2.50
2022-09-02T03:49:34.076Z,2.30
2022-09-02T03:52:03.570Z,2.63
2022-09-02T03:54:32.315Z,2.20
2022-09-02T03:57:00.738Z,2.90
2022-09-02T03:59:29.571Z,2.53
2022-09-02T04:01:58.565Z,2.20
2022-09-02T04:04:29.019Z,2.33
2022-09-02T04:06:59.255Z,2.37
2022-09-02T04:09:28.977Z,2.47
2022-09-02T04:11:57.879Z,2.30
2022-09-02T04:14:27.620Z,2.17
2022-09-02T04:16:57.261Z,2.13
2022-09-02T04:19:25.521Z,2.30
2022-09-02T04:21:55.491Z,2.37
2022-09-02T04:24:24.581Z,2.00
2022-09-02T04:26:53.223Z,2.30
2022-09-02T04:29:21.683Z,2.70
2022-09-02T04:31:53.960Z,2.30
2022-09-02T04:34:23.264Z,2.47
2022-09-02T04:36:53.541Z,2.50
2022-09-02T04:39:23.933Z,2.80
2022-09-02T04:41:53.998Z,2.60
2022-09-02T04:44:22.854Z,2.47
2022-09-02T04:46:51.245Z,2.20
2022-09-02T04:49:23.995Z,2.90
2022-09-02T04:51:55.038Z,1.90
2022-09-02T04:54:26.368Z,2.33
2022-09-02T04:56:57.759Z,2.00
2022-09-02T04:59:27.618Z,2.00
2022-09-02T05:02:04.796Z,2.27
2022-09-02T05:04:34.812Z,2.27
2022-09-02T05:07:04.255Z,2.13
2022-09-02T05:09:41.221Z,1.60
2022-09-02T05:12:09.966Z,2.13
2022-09-02T05:14:49.033Z,1.70
2022-09-02T05:17:19.774Z,1.77
2022-09-02T05:19:49.729Z,1.50
2022-09-02T05:22:20.203Z,1.80
2022-09-02T05:24:50.401Z,1.53
2022-09-02T05:27:19.349Z,1.73
2022-09-02T05:29:51.065Z,1.57
2022-09-02T05:32:22.642Z,1.70
2022-09-02T05:34:53.122Z,1.83
2022-09-02T05:40:14.990Z,1.80
2022-09-02T05:42:44.933Z,1.50
2022-09-02T05:45:17.464Z,1.43
2022-09-02T05:47:46.291Z,1.80
2022-09-02T05:50:15.032Z,1.60
2022-09-02T05:52:46.601Z,1.60
2022-09-02T05:55:16.252Z,1.37
2022-09-02T05:57:46.493Z,1.80
2022-09-02T06:00:18.253Z,1.63
2022-09-02T06:02:56.911Z,1.67
2022-09-02T06:05:29.988Z,1.90
2022-09-02T06:08:07.198Z,1.70
2022-09-02T06:10:43.090Z,1.80
2022-09-02T06:13:13.505Z,1.50
2022-09-02T06:15:44.201Z,1.53
2022-09-02T06:18:15.449Z,1.60
2022-09-02T06:20:48.011Z,1.80
2022-09-02T06:23:18.745Z,1.50
2022-09-02T06:25:50.594Z,1.47
2022-09-02T06:28:21.202Z,1.70
2022-09-02T06:30:51.089Z,1.83
2022-09-02T06:33:24.150Z,1.33
2022-09-02T06:35:53.536Z,1.10
2022-09-02T06:38:22.220Z,1.43
2022-09-02T06:40:56.200Z,1.13
2022-09-02T06:43:42.747Z,1.60
2022-09-02T06:46:28.823Z,1.20
2022-09-02T06:49:00.149Z,1.20
2022-09-02T06:51:33.252Z,1.17
2022-09-02T06:54:06.422Z,1.40
2022-09-02T06:56:39.282Z,1.33
2022-09-02T06:59:10.053Z,1.20
2022-09-02T07:01:48.514Z,1.87
2022-09-02T07:04:37.685Z,1.70
2022-09-02T07:07:09.921Z,0.90
2022-09-02T07:09:44.206Z,1.50
2022-09-02T07:12:20.145Z,1.50
2022-09-02T07:15:02.943Z,1.37
2022-09-02T07:17:39.627Z,1.30
2022-09-02T07:20:15.448Z,1.10
2022-09-02T07:25:20.346Z,1.10
2022-09-02T07:27:52.384Z,1.07
2022-09-02T07:30:21.619Z,1.40
2022-09-02T07:32:54.192Z,1.55
2022-09-02T07:35:25.482Z,1.00
2022-09-02T07:37:54.051Z,1.10
2022-09-02T07:40:23.593Z,1.35
2022-09-02T07:42:55.347Z,1.15
2022-09-02T07:45:24.644Z,1.00
2022-09-02T07:47:53.501Z,0.90
2022-09-02T07:50:25.335Z,1.10
2022-09-02T07:52:55.525Z,1.10
2022-09-02T07:55:24.669Z,1.45
2022-09-02T07:57:55.744Z,1.15
2022-09-02T08:00:28.072Z,1.83
2022-09-02T08:03:02.568Z,1.30
2022-09-02T08:05:39.096Z,1.05
2022-09-02T08:08:09.835Z,1.15
2022-09-02T08:10:39.676Z,1.17
2022-09-02T08:13:11.319Z,1.45
2022-09-02T08:15:40.517Z,1.40
2022-09-02T08:18:08.942Z,1.02
2022-09-02T08:20:48.076Z,1.27
2022-09-02T08:23:25.595Z,1.20
2022-09-02T08:25:55.760Z,1.17
2022-09-02T08:28:25.668Z,0.98
2022-09-02T08:30:54.923Z,1.30
2022-09-02T08:33:23.491Z,1.20
2022-09-02T08:35:52.004Z,1.20
2022-09-02T08:38:22.188Z,1.20
2022-09-02T08:40:52.690Z,1.10
2022-09-02T08:43:38.826Z,1.30
2022-09-02T08:46:12.214Z,1.10
2022-09-02T08:48:47.286Z,1.35
2022-09-02T08:51:25.429Z,1.00
2022-09-02T08:54:09.241Z,1.02
2022-09-02T08:56:37.712Z,1.00
2022-09-02T08:59:09.810Z,1.13
2022-09-02T09:01:49.908Z,1.10
2022-09-02T09:04:38.470Z,1.15
2022-09-02T09:07:26.564Z,1.38
2022-09-02T09:10:15.118Z,1.00
2022-09-02T09:13:05.606Z,1.17
2022-09-02T09:15:48.624Z,1.35
2022-09-02T09:18:22.923Z,1.00
2022-09-02T09:20:51.405Z,1.30
2022-09-02T09:23:34.082Z,1.20
2022-09-02T09:26:09.941Z,0.90
2022-09-02T09:28:48.093Z,1.23
2022-09-02T09:31:22.829Z,1.30
2022-09-02T09:33:59.870Z,1.05
2022-09-02T09:36:53.755Z,0.80
2022-09-02T09:39:27.021Z,1.35
2022-09-02T09:41:58.939Z,1.20
2022-09-02T09:44:45.853Z,1.10
2022-09-02T09:47:23.325Z,1.33
2022-09-02T09:49:54.902Z,1.13
2022-09-02T09:52:29.607Z,1.30
2022-09-02T09:55:19.204Z,1.23
2022-09-02T09:57:54.899Z,1.20
2022-09-02T10:00:29.906Z,1.13
2022-09-02T10:03:05.335Z,1.20
2022-09-02T10:05:37.970Z,1.42
2022-09-02T10:08:21.518Z,1.15
2022-09-02T10:11:00.036Z,1.10
2022-09-02T10:13:32.841Z,1.13
2022-09-02T10:16:30.556Z,1.35
2022-09-02T10:19:17.260Z,1.13
2022-09-02T10:22:19.539Z,1.20
2022-09-02T10:25:09.759Z,1.38
2022-09-02T10:27:52.321Z,0.77
2022-09-02T10:30:23.854Z,1.20
2022-09-02T10:33:22.667Z,1.30
2022-09-02T10:36:03.814Z,0.98
2022-09-02T10:38:44.007Z,1.48
2022-09-02T10:44:45.818Z,1.48
2022-09-02T10:47:29.415Z,1.20
2022-09-02T10:50:14.638Z,1.58
2022-09-02T10:53:09.541Z,1.08
2022-09-02T10:55:50.759Z,1.30
2022-09-02T10:58:31.381Z,1.02
2022-09-02T11:00:59.559Z,1.20
2022-09-02T11:03:37.650Z,1.45
2022-09-02T11:06:18.293Z,1.25
2022-09-02T11:08:54.435Z,1.50
2022-09-02T11:11:30.655Z,1.10
2022-09-02T11:14:15.997Z,0.80
2022-09-02T11:16:52.963Z,1.13
2022-09-02T11:19:33.152Z,1.13
2022-09-02T11:22:16.643Z,1.10
2022-09-02T11:24:56.994Z,1.00
2022-09-02T11:27:42.690Z,0.98
2022-09-02T11:30:18.044Z,1.40
2022-09-02T11:32:57.589Z,1.00
2022-09-02T11:35:29.285Z,1.55
2022-09-02T11:38:04.816Z,0.90
2022-09-02T11:44:02.705Z,0.98
2022-09-02T11:47:08.466Z,0.90
2022-09-02T11:50:04.385Z,1.10
2022-09-02T11:52:56.643Z,0.95
2022-09-02T11:55:30.977Z,1.02
2022-09-02T11:58:03.284Z,0.90
2022-09-02T12:00:34.728Z,1.50
2022-09-02T12:03:40.818Z,1.20
2022-09-02T12:06:13.782Z,1.13
2022-09-02T12:09:15.087Z,1.27
2022-09-02T12:11:53.216Z,0.90
2022-09-02T12:15:15.226Z,1.05
2022-09-02T12:18:10.994Z,1.27
2022-09-02T12:21:16.447Z,1.10
2022-09-02T12:24:22.359Z,1.80
2022-09-02T12:27:20.051Z,1.05
2022-09-02T12:29:48.618Z,0.90
2022-09-02T12:33:09.774Z,0.95
2022-09-02T12:35:59.599Z,1.50
2022-09-02T12:38:36.942Z,1.25
2022-09-02T12:41:24.559Z,0.88
2022-09-02T12:44:12.958Z,0.90
2022-09-02T12:47:06.168Z,1.20
2022-09-02T12:49:54.677Z,1.10
2022-09-02T12:52:46.919Z,1.02
2022-09-02T12:55:25.500Z,0.90
2022-09-02T12:58:07.276Z,1.05
2022-09-02T13:00:57.130Z,1.00
2022-09-02T13:03:58.925Z,0.93
2022-09-02T13:06:44.645Z,0.90
2022-09-02T13:10:07.132Z,1.33
2022-09-02T13:13:40.021Z,1.52
2022-09-02T13:16:23.785Z,1.20
2022-09-02T13:19:38.739Z,1.15
2022-09-02T13:22:50.156Z,1.58
2022-09-02T13:25:58.013Z,1.00
2022-09-02T13:29:21.486Z,1.10
2022-09-02T13:32:01.534Z,1.00
2022-09-02T13:34:32.537Z,1.02
2022-09-02T13:37:01.097Z,1.00
2022-09-02T13:39:31.544Z,0.88
2022-09-02T13:41:59.824Z,0.88
2022-09-02T13:44:30.483Z,1.00
2022-09-02T13:47:05.898Z,1.13
2022-09-02T13:49:38.529Z,1.02
2022-09-02T13:52:15.058Z,0.73
2022-09-02T13:54:52.684Z,1.00
2022-09-02T13:57:28.465Z,0.88
2022-09-02T13:59:59.481Z,0.80
2022-09-02T14:02:31.624Z,1.00
2022-09-02T14:05:07.097Z,1.08
2022-09-02T14:07:42.256Z,1.00
2022-09-02T14:10:17.300Z,0.90
2022-09-02T14:12:47.721Z,0.90
2022-09-02T14:15:24.994Z,1.13
2022-09-02T14:18:10.031Z,1.00
2022-09-02T14:20:40.195Z,0.80
2022-09-02T14:23:17.824Z,1.13
2022-09-02T14:25:55.714Z,1.50
2022-09-02T14:28:28.778Z,1.02
2022-09-02T14:31:02.396Z,1.15
2022-09-02T14:33:46.082Z,0.90
2022-09-02T14:36:35.084Z,1.58
2022-09-02T14:39:16.887Z,1.00
2022-09-02T14:41:50.750Z,1.33
2022-09-02T14:44:28.714Z,0.88
2022-09-02T14:47:00.791Z,1.00
2022-09-02T14:49:34.844Z,0.90
2022-09-02T14:52:16.812Z,0.88
2022-09-02T14:54:48.521Z,1.00
2022-09-02T14:57:32.640Z,1.00
2022-09-02T15:00:05.459Z,0.80
2022-09-02T15:02:37.052Z,0.52
2022-09-02T15:05:10.631Z,1.00
2022-09-02T15:07:39.498Z,2.05
2022-09-02T15:10:09.953Z,1.02
2022-09-02T15:12:49.424Z,0.90
2022-09-02T15:15:18.933Z,0.80
2022-09-02T15:17:47.123Z,1.30
2022-09-02T15:20:16.633Z,1.10
2022-09-02T15:22:45.827Z,1.00
2022-09-02T15:25:14.812Z,1.35
2022-09-02T15:27:44.713Z,1.10
2022-09-02T15:30:14.482Z,1.00
2022-09-02T15:32:42.928Z,0.90
2022-09-02T15:35:12.470Z,1.10
2022-09-02T15:37:42.144Z,1.15
2022-09-02T15:40:12.908Z,1.23
2022-09-02T15:42:41.573Z,1.35
2022-09-02T15:45:11.794Z,1.23
2022-09-02T15:47:41.393Z,1.23
2022-09-02T15:50:10.703Z,1.00
2022-09-02T15:52:42.358Z,1.27
2022-09-02T15:55:11.381Z,1.20
2022-09-02T15:57:40.080Z,1.45
2022-09-02T16:00:12.421Z,1.23
2022-09-02T16:02:40.591Z,1.15
2022-09-02T16:05:13.712Z,1.20
2022-09-02T16:07:41.950Z,1.05
2022-09-02T16:10:11.647Z,1.40
2022-09-02T16:12:40.080Z,1.60
2022-09-02T16:15:11.353Z,1.35
2022-09-02T16:17:39.474Z,1.20
2022-09-02T16:20:08.646Z,1.35
2022-09-02T16:22:37.466Z,1.35
2022-09-02T16:25:06.615Z,0.90
2022-09-02T16:27:49.596Z,1.20
2022-09-02T16:30:19.383Z,1.30
2022-09-02T16:32:50.661Z,1.35
2022-09-02T16:35:19.148Z,1.30
2022-09-02T16:37:47.958Z,1.20
2022-09-02T16:40:21.881Z,1.30
2022-09-02T16:42:50.179Z,1.15
2022-09-02T16:45:20.050Z,1.27
2022-09-02T16:47:48.208Z,1.17
2022-09-02T16:50:17.365Z,1.17
2022-09-02T16:52:45.482Z,1.60
2022-09-02T16:55:18.929Z,1.35
2022-09-02T16:57:47.101Z,0.98
2022-09-02T17:00:19.365Z,1.60
2022-09-02T17:02:47.545Z,1.30
2022-09-02T17:05:17.531Z,1.23
2022-09-02T17:07:47.139Z,1.23
2022-09-02T17:10:15.513Z,1.55
2022-09-02T17:12:44.679Z,1.38
2022-09-02T17:15:13.166Z,1.20
2022-09-02T17:17:43.551Z,1.08
2022-09-02T17:20:13.463Z,1.50
2022-09-02T17:22:41.880Z,1.40
2022-09-02T17:25:11.622Z,1.60
2022-09-02T17:27:42.300Z,1.52
2022-09-02T17:30:13.750Z,1.27
2022-09-02T17:32:43.948Z,1.52
2022-09-02T17:35:12.988Z,1.30
2022-09-02T17:37:42.236Z,1.30
2022-09-02T17:40:33.306Z,1.40
2022-09-02T17:43:00.996Z,1.60
2022-09-02T17:45:29.536Z,1.50
2022-09-02T17:48:08.858Z,1.63
2022-09-02T17:50:47.619Z,1.38
2022-09-02T17:53:15.856Z,1.70
2022-09-02T17:55:45.065Z,1.55
2022-09-02T17:58:21.788Z,1.45
2022-09-02T18:00:56.848Z,1.20
2022-09-02T18:03:47.908Z,1.88
2022-09-02T18:06:25.025Z,1.60
2022-09-02T18:08:58.232Z,1.55
2022-09-02T18:11:27.130Z,1.13
2022-09-02T18:14:11.413Z,1.40
2022-09-02T18:17:00.161Z,1.10
2022-09-02T18:19:44.291Z,1.30
2022-09-02T18:22:36.947Z,1.08
2022-09-02T18:25:29.558Z,1.58
2022-09-02T18:28:17.129Z,1.20
2022-09-02T18:30:53.174Z,1.33
2022-09-02T18:33:39.681Z,1.40
2022-09-02T18:36:28.093Z,1.48
2022-09-02T18:39:19.545Z,1.30
2022-09-02T18:42:07.873Z,1.65
2022-09-02T18:44:49.756Z,1.52
2022-09-02T18:47:24.634Z,1.33
2022-09-02T18:49:59.379Z,1.10
2022-09-02T18:52:30.323Z,1.60
2022-09-02T18:55:07.794Z,1.70
2022-09-02T18:57:45.498Z,1.42
2022-09-02T19:00:14.870Z,1.13
2022-09-02T19:02:51.745Z,1.00
2022-09-02T19:05:25.040Z,1.60
2022-09-02T19:08:20.283Z,1.55
2022-09-02T19:10:48.536Z,1.50
2022-09-02T19:13:18.379Z,1.40
2022-09-02T19:15:46.678Z,1.30
2022-09-02T19:18:15.444Z,1.50
2022-09-02T19:20:43.644Z,1.42
2022-09-02T19:23:14.609Z,1.15
2022-09-02T19:25:46.048Z,1.13
2022-09-02T19:28:17.957Z,1.23
2022-09-02T19:30:46.909Z,1.40
2022-09-02T19:33:17.867Z,1.50
2022-09-02T19:35:50.829Z,1.23
2022-09-02T19:38:20.832Z,1.17
2022-09-02T19:40:49.613Z,1.10
2022-09-02T19:43:18.226Z,1.60
2022-09-02T19:45:47.483Z,1.38
2022-09-02T19:48:15.994Z,1.45
2022-09-02T19:50:47.917Z,1.10
2022-09-02T19:53:25.659Z,1.08
2022-09-02T19:55:54.435Z,1.20
2022-09-02T19:58:23.121Z,1.42
2022-09-02T20:00:54.278Z,1.58
2022-09-02T20:03:22.621Z,1.63
2022-09-02T20:05:52.842Z,1.20
2022-09-02T20:08:28.860Z,1.67
2022-09-02T20:11:01.881Z,1.27
2022-09-02T20:13:38.637Z,1.50
2022-09-02T20:16:18.129Z,1.55
2022-09-02T20:18:48.333Z,1.33
2022-09-02T20:21:23.874Z,1.50
2022-09-02T20:23:54.151Z,1.10
2022-09-02T20:26:41.279Z,1.40
2022-09-02T20:29:29.634Z,1.27
2022-09-02T20:32:10.580Z,1.20
2022-09-02T20:35:03.637Z,1.10
2022-09-02T20:37:45.396Z,1.40
2022-09-02T20:40:51.855Z,1.33
2022-09-02T20:43:55.370Z,1.38
2022-09-02T20:46:38.602Z,1.42
2022-09-02T20:49:32.717Z,1.40
2022-09-02T20:52:09.554Z,1.58
2022-09-02T20:54:49.444Z,1.70
2022-09-02T20:57:41.266Z,1.85
2022-09-02T21:00:13.394Z,1.25
2022-09-02T21:02:52.684Z,2.50
2022-09-02T21:05:28.114Z,1.50
2022-09-02T21:08:04.867Z,1.50
2022-09-02T21:10:40.126Z,1.30
2022-09-02T21:13:17.250Z,1.20
2022-09-02T21:15:51.324Z,1.60
2022-09-02T21:18:34.305Z,1.50
2022-09-02T21:21:11.112Z,1.60
2022-09-02T21:23:46.588Z,1.42
2022-09-02T21:26:24.807Z,1.20
2022-09-02T21:29:02.358Z,1.55
2022-09-02T21:31:40.015Z,1.45
2022-09-02T21:34:17.182Z,1.42
2022-09-02T21:36:46.315Z,1.33
2022-09-02T21:39:20.024Z,1.50
2022-09-02T21:42:01.742Z,1.25
2022-09-02T21:44:49.760Z,1.38
2022-09-02T21:47:26.170Z,1.30
2022-09-02T21:50:07.706Z,1.45
2022-09-02T21:52:55.084Z,1.48
2022-09-02T21:55:45.676Z,1.05
2022-09-02T21:58:41.374Z,1.30
2022-09-02T22:01:27.517Z,1.48
2022-09-02T22:04:08.264Z,1.27
2022-09-02T22:06:43.706Z,1.48
2022-09-02T22:09:24.085Z,1.70
2022-09-02T22:12:03.959Z,1.60
2022-09-02T22:14:45.217Z,1.33
2022-09-02T22:17:25.128Z,1.73
2022-09-02T22:19:59.333Z,1.50
2022-09-02T22:22:37.215Z,1.50
2022-09-02T22:25:06.484Z,1.67
2022-09-02T22:27:45.702Z,1.42
2022-09-02T22:30:17.309Z,1.60
2022-09-02T22:32:50.578Z,1.80
2022-09-02T22:35:28.903Z,1.50
2022-09-02T22:38:06.275Z,1.65
2022-09-02T22:40:44.391Z,1.92
2022-09-02T22:43:20.206Z,1.63
2022-09-02T22:46:15.164Z,1.60
2022-09-02T22:49:12.522Z,1.63
2022-09-02T22:52:07.326Z,1.50
2022-09-02T22:54:36.509Z,1.73
2022-09-02T22:57:15.178Z,1.67
2022-09-02T23:00:01.269Z,1.60
2022-09-02T23:02:38.459Z,1.73
2022-09-02T23:05:45.347Z,1.42
2022-09-02T23:08:17.453Z,1.38
2022-09-02T23:10:54.483Z,1.65
2022-09-02T23:13:43.734Z,1.52
2022-09-02T23:16:23.907Z,1.50
2022-09-02T23:19:09.510Z,1.40
2022-09-02T23:21:55.707Z,1.63
2022-09-02T23:24:36.856Z,1.27
2022-09-02T23:27:17.063Z,1.55
2022-09-02T23:29:45.479Z,1.35
2022-09-02T23:32:55.832Z,1.67
2022-09-02T23:35:35.483Z,1.63
2022-09-02T23:38:25.914Z,1.40
2022-09-02T23:41:02.835Z,1.80
2022-09-02T23:43:31.788Z,1.48
2022-09-02T23:46:15.732Z,1.83
2022-09-02T23:48:53.986Z,1.65
2022-09-02T23:51:35.281Z,1.40
2022-09-02T23:54:33.003Z,1.70
2022-09-02T23:57:27.256Z,1.40
